createdAt,value
2022-10-21T00:01:40.409Z,68.83
2022-10-21T00:04:07.027Z,68.79
2022-10-21T00:06:33.504Z,69.75
2022-10-21T00:09:00.139Z,70.04
2022-10-21T00:11:27.061Z,70.17
2022-10-21T00:13:54.078Z,70.02
2022-10-21T00:16:20.597Z,70.29
2022-10-21T00:18:48.019Z,69.62
2022-10-21T00:21:19.592Z,69.78
2022-10-21T00:23:47.088Z,69.48
2022-10-21T00:26:14.794Z,69.68
2022-10-21T00:28:42.223Z,69.67
2022-10-21T00:31:10.345Z,69.16
2022-10-21T00:33:37.451Z,67.76
2022-10-21T00:36:06.030Z,67.54
2022-10-21T00:38:33.005Z,67.69
2022-10-21T00:40:59.776Z,67.23
2022-10-21T00:43:27.166Z,65.32
2022-10-21T00:45:57.563Z,65.27
2022-10-21T00:48:27.094Z,64.55
2022-10-21T00:50:59.926Z,65.58
2022-10-21T00:53:26.985Z,65.57
2022-10-21T00:56:00.619Z,64.06
2022-10-21T00:58:30.907Z,65.54
2022-10-21T01:00:58.479Z,63.57
2022-10-21T01:03:26.147Z,64.83
2022-10-21T01:05:54.151Z,65.39
2022-10-21T01:08:20.823Z,64.27
2022-10-21T01:10:47.473Z,62.99
2022-10-21T01:13:51.643Z,62.05
2022-10-21T01:16:41.216Z,61.72
2022-10-21T01:19:47.381Z,63.22
2022-10-21T01:22:32.192Z,63.11
2022-10-21T01:25:36.229Z,64.53
2022-10-21T01:28:08.773Z,62.85
2022-10-21T01:30:40.371Z,61.84
2022-10-21T01:33:19.150Z,62.03
2022-10-21T01:35:55.051Z,62.02
2022-10-21T01:38:32.846Z,61.07
2022-10-21T01:41:06.147Z,62.18
2022-10-21T01:43:38.806Z,63.18
2022-10-21T01:46:12.997Z,62.71
2022-10-21T01:48:43.994Z,61.73
2022-10-21T01:51:11.277Z,60.71
2022-10-21T01:53:56.129Z,59.89
2022-10-21T01:56:22.936Z,59.63
2022-10-21T01:58:50.168Z,59.37
2022-10-21T02:01:17.913Z,59.99
2022-10-21T02:03:46.753Z,60.89
2022-10-21T02:06:14.124Z,60.19
2022-10-21T02:08:42.331Z,60.39
2022-10-21T02:11:11.034Z,60.28
2022-10-21T02:13:49.162Z,61.44
2022-10-21T02:16:17.858Z,61.31
2022-10-21T02:18:44.548Z,61.48
2022-10-21T02:21:18.963Z,61.18
2022-10-21T02:23:57.895Z,61.46
2022-10-21T02:26:26.529Z,61.68
2022-10-21T02:28:54.045Z,61.46
2022-10-21T02:31:23.557Z,62.24
2022-10-21T02:34:08.288Z,62.72
2022-10-21T02:36:56.703Z,62.86
2022-10-21T02:39:35.219Z,62.96
2022-10-21T02:42:04.613Z,64.14
2022-10-21T02:44:31.130Z,62.66
2022-10-21T02:46:57.711Z,62.09
2022-10-21T02:49:24.542Z,61.76
2022-10-21T02:51:50.970Z,61.40
2022-10-21T02:54:17.453Z,61.73
2022-10-21T02:56:43.922Z,61.45
2022-10-21T02:59:10.798Z,61.26
2022-10-21T03:01:37.209Z,61.58
2022-10-21T03:04:03.671Z,61.91
2022-10-21T03:06:30.216Z,62.38
2022-10-21T03:08:56.671Z,61.90
2022-10-21T03:11:23.161Z,61.85
2022-10-21T03:13:49.613Z,61.57
2022-10-21T03:16:16.368Z,61.54
2022-10-21T03:18:43.449Z,61.97
2022-10-21T03:21:09.930Z,63.63
2022-10-21T03:23:36.352Z,62.83
2022-10-21T03:26:02.757Z,62.73
2022-10-21T03:28:30.429Z,63.77
2022-10-21T03:30:56.997Z,64.06
2022-10-21T03:33:23.464Z,63.47
2022-10-21T03:35:49.849Z,63.96
2022-10-21T03:38:16.673Z,63.71
2022-10-21T03:40:43.106Z,63.73
2022-10-21T03:43:09.570Z,63.71
2022-10-21T03:45:36.070Z,63.45
2022-10-21T03:48:02.560Z,64.30
2022-10-21T03:50:29.121Z,64.63
2022-10-21T03:52:55.652Z,66.07
2022-10-21T03:55:24.238Z,64.50
2022-10-21T03:57:51.560Z,64.75
2022-10-21T04:00:18.219Z,64.70
2022-10-21T04:02:44.726Z,64.14
2022-10-21T04:05:11.837Z,63.62
2022-10-21T04:07:38.364Z,63.65
2022-10-21T04:10:06.318Z,63.31
2022-10-21T04:12:32.884Z,63.62
2022-10-21T04:14:59.329Z,63.65
2022-10-21T04:17:26.469Z,63.60
2022-10-21T04:19:52.931Z,63.35
2022-10-21T04:22:19.372Z,63.92
2022-10-21T04:24:45.829Z,65.02
2022-10-21T04:27:12.316Z,64.75
2022-10-21T04:29:38.809Z,64.34
2022-10-21T04:32:05.430Z,64.08
2022-10-21T04:34:31.926Z,65.04
2022-10-21T04:37:01.103Z,64.62
2022-10-21T04:39:30.735Z,63.72
2022-10-21T04:41:57.322Z,63.51
2022-10-21T04:44:23.802Z,63.37
2022-10-21T04:46:50.753Z,63.88
2022-10-21T04:49:17.316Z,64.12
2022-10-21T04:51:43.908Z,64.03
2022-10-21T04:54:10.461Z,63.76
2022-10-21T04:56:36.931Z,64.38
2022-10-21T04:59:03.469Z,63.97
2022-10-21T05:01:29.961Z,63.70
2022-10-21T05:03:56.466Z,63.04
2022-10-21T05:06:23.056Z,63.38
2022-10-21T05:08:49.612Z,64.75
2022-10-21T05:11:16.154Z,64.41
2022-10-21T05:13:42.625Z,64.43
2022-10-21T05:16:09.066Z,64.92
2022-10-21T05:18:35.575Z,64.85
2022-10-21T05:21:02.723Z,66.63
2022-10-21T05:23:29.380Z,67.13
2022-10-21T05:25:55.839Z,67.00
2022-10-21T05:28:22.654Z,67.35
2022-10-21T05:30:49.395Z,66.36
2022-10-21T05:33:16.532Z,66.10
2022-10-21T05:35:42.978Z,65.79
2022-10-21T05:38:09.489Z,65.38
2022-10-21T05:40:35.945Z,66.11
2022-10-21T05:43:02.442Z,65.00
2022-10-21T05:45:29.054Z,63.65
2022-10-21T05:47:55.515Z,63.65
2022-10-21T05:50:21.991Z,64.96
2022-10-21T05:52:48.867Z,64.05
2022-10-21T05:55:15.459Z,64.14
2022-10-21T05:57:42.135Z,64.32
2022-10-21T06:00:09.749Z,64.84
2022-10-21T06:02:44.506Z,62.99
2022-10-21T06:05:11.138Z,62.88
2022-10-21T06:07:37.903Z,62.01
2022-10-21T06:10:05.355Z,62.28
2022-10-21T06:12:31.866Z,61.30
2022-10-21T06:14:58.425Z,60.95
2022-10-21T06:17:24.959Z,60.97
2022-10-21T06:19:51.490Z,61.77
2022-10-21T06:22:18.144Z,61.57
2022-10-21T06:24:44.616Z,61.11
2022-10-21T06:27:11.127Z,61.65
2022-10-21T06:29:47.611Z,61.70
2022-10-21T06:32:14.056Z,61.98
2022-10-21T06:34:40.747Z,63.48
2022-10-21T06:37:07.210Z,62.53
2022-10-21T06:39:33.760Z,62.74
2022-10-21T06:42:00.175Z,62.08
2022-10-21T06:44:26.636Z,61.97
2022-10-21T06:46:54.108Z,61.77
2022-10-21T06:49:20.583Z,62.14
2022-10-21T06:51:47.032Z,61.22
2022-10-21T06:54:13.571Z,61.38
2022-10-21T06:56:40.338Z,61.58
2022-10-21T06:59:06.884Z,61.11
2022-10-21T07:01:48.152Z,60.52
2022-10-21T07:04:20.017Z,60.71
2022-10-21T07:06:46.469Z,61.41
2022-10-21T07:09:13.104Z,59.60
2022-10-21T07:11:39.781Z,58.92
2022-10-21T07:14:07.451Z,57.79
2022-10-21T07:16:38.839Z,57.60
2022-10-21T07:19:10.211Z,57.54
2022-10-21T07:21:36.725Z,56.98
2022-10-21T07:24:03.277Z,56.50
2022-10-21T07:26:31.801Z,57.18
2022-10-21T07:28:59.789Z,56.58
2022-10-21T07:31:27.033Z,56.38
2022-10-21T07:33:54.116Z,56.11
2022-10-21T07:36:25.914Z,56.31
2022-10-21T07:38:53.662Z,56.24
2022-10-21T07:41:22.741Z,56.69
2022-10-21T07:43:49.974Z,56.79
2022-10-21T07:46:18.174Z,57.30
2022-10-21T07:48:44.793Z,57.24
2022-10-21T07:51:13.794Z,57.70
2022-10-21T07:53:40.811Z,57.41
2022-10-21T07:56:08.248Z,57.13
2022-10-21T07:58:35.302Z,57.02
2022-10-21T08:01:03.574Z,56.93
2022-10-21T08:03:30.314Z,56.82
2022-10-21T08:05:57.305Z,57.09
2022-10-21T08:08:24.972Z,57.43
2022-10-21T08:10:52.760Z,57.11
2022-10-21T08:13:19.813Z,56.93
2022-10-21T08:15:49.153Z,56.66
2022-10-21T08:18:16.665Z,56.53
2022-10-21T08:20:44.430Z,56.29
2022-10-21T08:23:11.997Z,56.39
2022-10-21T08:25:38.570Z,56.28
2022-10-21T08:28:05.814Z,56.96
2022-10-21T08:30:32.902Z,57.21
2022-10-21T08:32:59.572Z,57.59
2022-10-21T08:35:27.067Z,57.70
2022-10-21T08:37:54.166Z,58.31
2022-10-21T08:40:20.900Z,58.79
2022-10-21T08:42:47.488Z,61.24
2022-10-21T08:45:32.926Z,61.65
2022-10-21T08:48:03.758Z,60.37
2022-10-21T08:50:35.656Z,59.58
2022-10-21T08:53:06.390Z,58.93
2022-10-21T08:55:37.090Z,60.35
2022-10-21T08:58:04.371Z,61.09
2022-10-21T09:01:05.587Z,62.28
2022-10-21T09:03:48.329Z,61.80
2022-10-21T09:06:28.366Z,63.93
2022-10-21T09:09:02.271Z,61.95
2022-10-21T09:11:51.949Z,61.71
2022-10-21T09:14:27.680Z,60.38
2022-10-21T09:17:01.961Z,59.32
2022-10-21T09:19:37.587Z,59.67
2022-10-21T09:22:35.983Z,58.72
2022-10-21T09:25:19.398Z,58.08
2022-10-21T09:28:01.991Z,58.02
2022-10-21T09:30:28.855Z,58.03
2022-10-21T09:32:59.912Z,58.75
2022-10-21T09:35:44.123Z,60.99
2022-10-21T09:38:10.535Z,59.15
2022-10-21T09:40:36.993Z,58.76
2022-10-21T09:43:04.209Z,58.31
2022-10-21T09:45:36.642Z,58.83
2022-10-21T09:48:18.155Z,60.62
2022-10-21T09:50:51.624Z,63.28
2022-10-21T09:53:26.571Z,64.38
2022-10-21T09:56:02.331Z,62.41
2022-10-21T09:58:36.606Z,64.29
2022-10-21T10:01:03.653Z,65.17
2022-10-21T10:03:34.272Z,66.08
2022-10-21T10:06:01.761Z,67.56
2022-10-21T10:08:33.795Z,65.98
2022-10-21T10:11:04.358Z,67.99
2022-10-21T10:13:31.967Z,66.55
2022-10-21T10:16:19.415Z,67.70
2022-10-21T10:18:46.021Z,70.00
2022-10-21T10:21:17.541Z,70.73
2022-10-21T10:23:44.089Z,70.80
2022-10-21T10:26:10.949Z,70.79
2022-10-21T10:28:37.589Z,70.94
2022-10-21T10:31:04.199Z,70.25
2022-10-21T10:33:35.178Z,69.03
2022-10-21T10:36:05.573Z,69.98
2022-10-21T10:38:38.089Z,72.54
2022-10-21T10:41:07.951Z,71.83
2022-10-21T10:43:44.013Z,72.40
2022-10-21T10:46:20.942Z,72.74
2022-10-21T10:48:50.625Z,71.80
2022-10-21T10:51:24.232Z,72.94
2022-10-21T10:54:20.328Z,72.88
2022-10-21T10:56:58.845Z,72.90
2022-10-21T10:59:44.810Z,71.45
2022-10-21T11:02:12.130Z,71.52
2022-10-21T11:04:46.462Z,72.00
2022-10-21T11:07:17.342Z,72.26
2022-10-21T11:09:44.143Z,72.32
2022-10-21T11:12:20.298Z,72.88
2022-10-21T11:14:51.084Z,70.39
2022-10-21T11:17:20.822Z,69.83
2022-10-21T11:20:13.423Z,69.61
2022-10-21T11:23:23.330Z,70.48
2022-10-21T11:26:03.380Z,71.62
2022-10-21T11:28:35.993Z,73.40
2022-10-21T11:31:26.634Z,73.10
2022-10-21T11:34:11.426Z,75.25
2022-10-21T11:36:49.410Z,75.28
2022-10-21T11:39:24.823Z,74.98
2022-10-21T11:42:11.014Z,74.26
2022-10-21T11:45:16.801Z,73.17
2022-10-21T11:47:49.114Z,72.55
2022-10-21T11:50:15.773Z,74.53
2022-10-21T11:52:51.637Z,73.87
2022-10-21T11:55:55.826Z,72.41
2022-10-21T11:58:47.501Z,73.23
2022-10-21T12:01:41.290Z,73.22
2022-10-21T12:04:21.569Z,72.80
2022-10-21T12:06:53.518Z,71.37
2022-10-21T12:09:24.259Z,74.20
2022-10-21T12:12:05.853Z,74.51
2022-10-21T12:14:52.141Z,72.64
2022-10-21T12:17:21.098Z,71.98
2022-10-21T12:20:01.791Z,70.62
2022-10-21T12:22:29.379Z,72.70
2022-10-21T12:25:35.504Z,71.85
2022-10-21T12:28:11.823Z,71.02
2022-10-21T12:30:43.704Z,70.74
2022-10-21T12:33:38.308Z,68.42
2022-10-21T12:36:40.221Z,67.94
2022-10-21T12:39:32.855Z,68.77
2022-10-21T12:42:12.521Z,68.18
2022-10-21T12:44:40.143Z,68.77
2022-10-21T12:47:32.158Z,66.02
2022-10-21T12:50:14.073Z,65.11
2022-10-21T12:52:44.667Z,64.45
2022-10-21T12:55:21.215Z,64.31
2022-10-21T12:57:56.827Z,62.42
2022-10-21T13:03:25.599Z,64.90
2022-10-21T13:06:02.762Z,62.01
2022-10-21T13:08:38.515Z,59.52
2022-10-21T13:11:08.082Z,59.00
2022-10-21T13:13:39.363Z,59.11
2022-10-21T13:16:18.037Z,58.34
2022-10-21T13:18:50.553Z,58.04
2022-10-21T13:21:31.160Z,58.44
2022-10-21T13:24:06.179Z,58.16
2022-10-21T13:26:32.761Z,58.76
2022-10-21T13:29:05.336Z,57.29
2022-10-21T13:31:31.929Z,56.48
2022-10-21T13:33:58.645Z,56.24
2022-10-21T13:39:25.012Z,56.91
2022-10-21T13:42:06.936Z,56.40
2022-10-21T13:44:35.963Z,58.72
2022-10-21T13:47:38.194Z,62.47
2022-10-21T13:50:10.427Z,60.91
2022-10-21T13:52:36.846Z,60.93
2022-10-21T13:55:05.297Z,61.25
2022-10-21T13:57:35.474Z,60.01
2022-10-21T14:00:15.904Z,60.06
2022-10-21T14:02:47.811Z,60.61
2022-10-21T14:05:59.372Z,60.30
2022-10-21T14:08:33.177Z,61.24
2022-10-21T14:11:02.413Z,61.69
2022-10-21T14:13:36.898Z,62.86
2022-10-21T14:16:04.749Z,62.29
2022-10-21T14:18:37.142Z,61.47
2022-10-21T14:21:05.560Z,59.86
2022-10-21T14:23:32.392Z,61.78
2022-10-21T14:26:05.827Z,61.65
2022-10-21T14:28:33.653Z,60.71
2022-10-21T14:31:01.361Z,60.82
2022-10-21T14:33:28.954Z,60.32
2022-10-21T14:36:14.735Z,59.10
2022-10-21T14:38:42.763Z,58.07
2022-10-21T14:41:15.348Z,57.76
2022-10-21T14:43:43.798Z,59.01
2022-10-21T14:46:10.740Z,59.86
2022-10-21T14:48:46.544Z,60.09
2022-10-21T14:51:17.700Z,59.80
2022-10-21T14:53:57.957Z,59.59
2022-10-21T14:56:30.807Z,59.17
2022-10-21T14:58:59.334Z,60.26
2022-10-21T15:01:26.045Z,59.72
2022-10-21T15:03:58.141Z,60.98
2022-10-21T15:06:31.122Z,61.78
2022-10-21T15:08:58.818Z,60.21
2022-10-21T15:11:25.839Z,59.25
2022-10-21T15:14:14.069Z,59.17
2022-10-21T15:16:50.618Z,59.41
2022-10-21T15:19:23.173Z,59.57
2022-10-21T15:21:53.030Z,59.46
2022-10-21T15:24:24.665Z,59.50
2022-10-21T15:26:52.811Z,58.92
2022-10-21T15:29:34.638Z,60.72
2022-10-21T15:32:01.594Z,59.96
2022-10-21T15:34:28.381Z,62.28
2022-10-21T15:36:55.248Z,61.20
2022-10-21T15:39:21.721Z,61.76
2022-10-21T15:41:49.984Z,62.24
2022-10-21T15:44:33.686Z,60.94
2022-10-21T15:47:02.463Z,60.62
2022-10-21T15:49:42.110Z,61.61
2022-10-21T15:52:09.401Z,61.69
2022-10-21T15:54:35.869Z,62.12
2022-10-21T15:57:04.460Z,61.73
2022-10-21T15:59:33.164Z,62.03
2022-10-21T16:02:00.650Z,62.87
2022-10-21T16:04:27.549Z,63.96
2022-10-21T16:06:54.403Z,63.56
2022-10-21T16:09:22.461Z,62.64
2022-10-21T16:11:58.985Z,63.59
2022-10-21T16:14:29.552Z,63.97
2022-10-21T16:17:00.146Z,65.21
2022-10-21T16:19:27.090Z,64.48
2022-10-21T16:21:53.628Z,63.92
2022-10-21T16:24:20.110Z,63.56
2022-10-21T16:26:48.730Z,63.11
2022-10-21T16:29:21.204Z,63.24
2022-10-21T16:31:47.922Z,61.81
2022-10-21T16:34:14.341Z,61.70
2022-10-21T16:36:41.073Z,61.22
2022-10-21T16:39:18.639Z,62.96
2022-10-21T16:41:45.103Z,62.53
2022-10-21T16:44:11.631Z,61.60
2022-10-21T16:46:42.730Z,60.68
2022-10-21T16:49:13.987Z,60.97
2022-10-21T16:51:46.104Z,63.05
2022-10-21T16:54:13.815Z,61.57
2022-10-21T16:56:40.429Z,61.03
2022-10-21T16:59:07.844Z,61.19
2022-10-21T17:01:34.658Z,63.04
2022-10-21T17:04:01.154Z,61.82
2022-10-21T17:06:27.804Z,64.08
2022-10-21T17:08:56.757Z,63.91
2022-10-21T17:11:33.993Z,64.53
2022-10-21T17:14:02.156Z,65.21
2022-10-21T17:16:28.812Z,64.97
2022-10-21T17:18:55.415Z,64.23
2022-10-21T17:21:24.603Z,63.42
2022-10-21T17:23:51.687Z,64.17
2022-10-21T17:26:18.541Z,66.83
2022-10-21T17:28:45.364Z,66.42
2022-10-21T17:31:23.359Z,65.91
2022-10-21T17:33:50.966Z,65.76
2022-10-21T17:36:17.869Z,66.14
2022-10-21T17:38:44.789Z,67.76
2022-10-21T17:41:13.632Z,68.14
2022-10-21T17:43:40.484Z,68.29
2022-10-21T17:46:07.560Z,67.84
2022-10-21T17:48:34.073Z,67.30
2022-10-21T17:51:01.761Z,68.04
2022-10-21T17:53:29.413Z,66.46
2022-10-21T17:56:04.353Z,67.57
2022-10-21T17:58:30.953Z,67.18
2022-10-21T18:00:58.011Z,66.91
2022-10-21T18:03:25.782Z,68.57
2022-10-21T18:05:53.295Z,66.21
2022-10-21T18:08:19.837Z,68.26
2022-10-21T18:10:55.350Z,68.97
2022-10-21T18:13:23.244Z,68.05
2022-10-21T18:15:50.378Z,66.51
2022-10-21T18:18:17.930Z,67.36
2022-10-21T18:20:44.630Z,66.77
2022-10-21T18:23:11.307Z,68.09
2022-10-21T18:25:39.026Z,68.48
2022-10-21T18:28:05.693Z,67.86
2022-10-21T18:30:32.797Z,66.69
2022-10-21T18:32:59.435Z,68.36
2022-10-21T18:35:26.082Z,66.97
2022-10-21T18:37:52.628Z,66.84
2022-10-21T18:40:19.295Z,65.56
2022-10-21T18:42:45.777Z,66.28
2022-10-21T18:45:12.358Z,65.85
2022-10-21T18:47:39.183Z,66.20
2022-10-21T18:50:06.443Z,67.11
2022-10-21T18:52:32.907Z,65.61
2022-10-21T18:54:59.890Z,65.53
2022-10-21T18:57:26.430Z,65.68
2022-10-21T18:59:54.431Z,67.77
2022-10-21T19:02:22.366Z,67.13
2022-10-21T19:04:49.463Z,65.78
2022-10-21T19:07:16.820Z,65.80
2022-10-21T19:09:43.401Z,67.44
2022-10-21T19:12:11.980Z,67.78
2022-10-21T19:14:40.384Z,66.74
2022-10-21T19:17:07.122Z,67.52
2022-10-21T19:19:37.181Z,66.57
2022-10-21T19:22:05.781Z,67.09
2022-10-21T19:24:32.205Z,69.14
2022-10-21T19:26:59.266Z,69.63
2022-10-21T19:29:26.556Z,67.72
2022-10-21T19:31:54.184Z,68.95
2022-10-21T19:34:23.593Z,69.08
2022-10-21T19:36:50.454Z,68.98
2022-10-21T19:39:17.026Z,69.81
2022-10-21T19:41:43.869Z,69.06
2022-10-21T19:44:10.379Z,69.60
2022-10-21T19:46:37.566Z,71.25
2022-10-21T19:49:05.384Z,70.33
2022-10-21T19:51:32.429Z,71.54
2022-10-21T19:53:58.902Z,70.69
2022-10-21T19:56:29.683Z,71.69
2022-10-21T19:58:59.524Z,70.38
2022-10-21T20:01:26.675Z,71.53
2022-10-21T20:03:53.993Z,72.73
2022-10-21T20:06:26.304Z,72.72
2022-10-21T20:09:07.487Z,71.17
2022-10-21T20:11:34.504Z,71.37
2022-10-21T20:14:01.150Z,70.26
2022-10-21T20:16:36.551Z,70.46
2022-10-21T20:19:04.377Z,70.15
2022-10-21T20:21:34.509Z,70.63
2022-10-21T20:24:01.256Z,70.00
2022-10-21T20:26:28.878Z,69.34
2022-10-21T20:28:56.601Z,68.35
2022-10-21T20:31:23.362Z,66.44
2022-10-21T20:33:50.770Z,68.20
2022-10-21T20:36:23.057Z,68.50
2022-10-21T20:38:50.386Z,68.66
2022-10-21T20:41:22.645Z,68.15
2022-10-21T20:43:50.239Z,68.53
2022-10-21T20:46:17.357Z,68.18
2022-10-21T20:48:48.308Z,68.40
2022-10-21T20:51:17.665Z,66.94
2022-10-21T20:53:49.719Z,66.45
2022-10-21T20:56:16.705Z,66.03
2022-10-21T20:58:43.597Z,67.38
2022-10-21T21:01:11.664Z,66.53
2022-10-21T21:03:40.781Z,65.65
2022-10-21T21:06:07.565Z,66.20
2022-10-21T21:08:44.570Z,67.80
2022-10-21T21:11:16.179Z,66.72
2022-10-21T21:13:44.558Z,65.65
2022-10-21T21:16:21.980Z,65.20
2022-10-21T21:18:56.664Z,65.43
2022-10-21T21:21:25.184Z,66.51
2022-10-21T21:23:52.408Z,65.23
2022-10-21T21:26:24.344Z,64.37
2022-10-21T21:28:51.664Z,65.49
2022-10-21T21:31:19.825Z,65.43
2022-10-21T21:33:46.455Z,65.50
2022-10-21T21:36:14.507Z,65.89
2022-10-21T21:38:41.271Z,66.37
2022-10-21T21:41:09.829Z,65.20
2022-10-21T21:43:37.926Z,64.46
2022-10-21T21:46:04.560Z,63.98
2022-10-21T21:48:32.150Z,64.29
2022-10-21T21:51:03.448Z,64.38
2022-10-21T21:53:29.955Z,64.09
2022-10-21T21:55:59.762Z,63.99
2022-10-21T21:58:29.516Z,63.93
2022-10-21T22:00:56.016Z,63.62
2022-10-21T22:03:22.542Z,63.11
2022-10-21T22:05:48.994Z,63.09
2022-10-21T22:08:15.587Z,63.36
2022-10-21T22:10:42.570Z,62.88
2022-10-21T22:13:09.258Z,63.96
2022-10-21T22:15:47.678Z,65.24
2022-10-21T22:18:14.473Z,65.95
2022-10-21T22:20:41.141Z,66.97
2022-10-21T22:23:07.664Z,67.53
2022-10-21T22:25:34.377Z,68.25
2022-10-21T22:28:00.827Z,69.11
2022-10-21T22:30:27.345Z,67.76
2022-10-21T22:32:53.800Z,68.70
2022-10-21T22:35:20.227Z,68.75
2022-10-21T22:37:46.727Z,66.50
2022-10-21T22:40:13.445Z,65.55
2022-10-21T22:42:39.941Z,65.72
2022-10-21T22:45:07.259Z,65.22
2022-10-21T22:47:34.003Z,65.13
2022-10-21T22:50:00.578Z,64.14
2022-10-21T22:52:27.042Z,64.46
2022-10-21T22:54:53.519Z,64.72
2022-10-21T22:57:19.985Z,63.83
2022-10-21T22:59:50.595Z,64.14
2022-10-21T23:02:19.830Z,63.64
2022-10-21T23:04:46.291Z,63.86
2022-10-21T23:07:12.963Z,65.17
2022-10-21T23:09:39.487Z,66.25
2022-10-21T23:12:06.150Z,67.34
2022-10-21T23:14:32.634Z,67.36
2022-10-21T23:16:59.096Z,67.19
2022-10-21T23:19:25.653Z,66.47
2022-10-21T23:21:52.352Z,66.37
2022-10-21T23:24:19.809Z,66.29
2022-10-21T23:26:46.980Z,66.65
2022-10-21T23:29:13.679Z,65.90
2022-10-21T23:31:40.224Z,66.15
2022-10-21T23:34:06.795Z,65.59
2022-10-21T23:36:35.403Z,64.47
2022-10-21T23:39:02.402Z,66.09
2022-10-21T23:41:29.075Z,66.42
2022-10-21T23:43:55.739Z,67.04
2022-10-21T23:46:23.471Z,66.83
2022-10-21T23:48:50.066Z,68.37
2022-10-21T23:51:16.605Z,68.05
2022-10-21T23:53:43.106Z,67.78
2022-10-21T23:56:09.566Z,66.97
2022-10-21T23:58:35.973Z,66.66
